sensor_id;sensor_type;location;lat;lon;timestamp;pressure;altitude;pressure_sealevel;temperature;humidity
45813;BME280;31519;45.408;10.962;2023-12-20T00:02:14;100827.81;;;6.95;78.67
45813;BME280;31519;45.408;10.962;2023-12-20T00:04:43;100826.75;;;6.96;78.31
45813;BME280;31519;45.408;10.962;2023-12-20T00:07:11;100819.56;;;7.02;78.19
45813;BME280;31519;45.408;10.962;2023-12-20T00:09:40;100812.03;;;7.24;77.23
45813;BME280;31519;45.408;10.962;2023-12-20T00:12:09;100810.53;;;7.13;76.71
45813;BME280;31519;45.408;10.962;2023-12-20T00:14:38;100810.91;;;7.35;75.25
45813;BME280;31519;45.408;10.962;2023-12-20T00:17:06;100799.88;;;7.23;75.86
45813;BME280;31519;45.408;10.962;2023-12-20T00:19:35;100798.22;;;7.32;75.38
45813;BME280;31519;45.408;10.962;2023-12-20T00:22:04;100782.59;;;7.31;75.04
45813;BME280;31519;45.408;10.962;2023-12-20T00:24:33;100786.72;;;7.03;74.90
45813;BME280;31519;45.408;10.962;2023-12-20T00:27:01;100773.72;;;7.06;74.66
45813;BME280;31519;45.408;10.962;2023-12-20T00:29:30;100772.38;;;7.14;74.34
45813;BME280;31519;45.408;10.962;2023-12-20T00:31:59;100772.88;;;7.16;73.27
45813;BME280;31519;45.408;10.962;2023-12-20T00:34:27;100767.41;;;7.02;73.72
45813;BME280;31519;45.408;10.962;2023-12-20T00:36:55;100767.94;;;6.99;73.77
45813;BME280;31519;45.408;10.962;2023-12-20T00:39:25;100765.31;;;6.94;74.01
45813;BME280;31519;45.408;10.962;2023-12-20T00:41:53;100761.44;;;6.77;74.34
45813;BME280;31519;45.408;10.962;2023-12-20T00:44:21;100756.63;;;6.84;74.65
45813;BME280;31519;45.408;10.962;2023-12-20T00:46:49;100747.59;;;6.95;73.90
45813;BME280;31519;45.408;10.962;2023-12-20T00:49:18;100755.03;;;6.88;74.45
45813;BME280;31519;45.408;10.962;2023-12-20T00:51:47;100742.56;;;6.88;74.73
45813;BME280;31519;45.408;10.962;2023-12-20T00:54:16;100744.44;;;6.88;74.28
45813;BME280;31519;45.408;10.962;2023-12-20T00:56:44;100740.53;;;6.75;74.96
45813;BME280;31519;45.408;10.962;2023-12-20T00:59:13;100732.31;;;6.77;75.11
45813;BME280;31519;45.408;10.962;2023-12-20T01:01:42;100730.75;;;6.71;75.18
45813;BME280;31519;45.408;10.962;2023-12-20T01:04:11;100732.88;;;6.74;74.84
45813;BME280;31519;45.408;10.962;2023-12-20T01:06:39;100736.00;;;6.81;74.39
45813;BME280;31519;45.408;10.962;2023-12-20T01:09:08;100729.91;;;6.85;74.64
45813;BME280;31519;45.408;10.962;2023-12-20T01:11:36;100732.38;;;6.66;75.93
45813;BME280;31519;45.408;10.962;2023-12-20T01:14:05;100738.84;;;6.35;76.65
45813;BME280;31519;45.408;10.962;2023-12-20T01:16:33;100733.56;;;6.35;77.42
45813;BME280;31519;45.408;10.962;2023-12-20T01:19:02;100726.41;;;6.41;77.93
45813;BME280;31519;45.408;10.962;2023-12-20T01:21:30;100725.84;;;6.49;76.81
45813;BME280;31519;45.408;10.962;2023-12-20T01:23:58;100723.00;;;6.25;77.43
45813;BME280;31519;45.408;10.962;2023-12-20T01:26:26;100717.50;;;6.06;79.08
45813;BME280;31519;45.408;10.962;2023-12-20T01:28:55;100713.00;;;6.07;78.31
45813;BME280;31519;45.408;10.962;2023-12-20T01:31:24;100717.50;;;5.96;78.68
45813;BME280;31519;45.408;10.962;2023-12-20T01:33:53;100720.44;;;5.95;79.09
45813;BME280;31519;45.408;10.962;2023-12-20T01:36:21;100718.03;;;6.08;78.36
45813;BME280;31519;45.408;10.962;2023-12-20T01:38:50;100716.47;;;5.92;78.21
45813;BME280;31519;45.408;10.962;2023-12-20T01:41:18;100714.09;;;5.96;78.14
45813;BME280;31519;45.408;10.962;2023-12-20T01:43:46;100705.59;;;6.14;77.70
45813;BME280;31519;45.408;10.962;2023-12-20T01:46:20;100707.47;;;5.93;78.33
45813;BME280;31519;45.408;10.962;2023-12-20T01:48:49;100703.75;;;6.04;78.02
45813;BME280;31519;45.408;10.962;2023-12-20T01:51:19;100702.97;;;6.04;78.27
45813;BME280;31519;45.408;10.962;2023-12-20T01:53:48;100698.16;;;6.16;77.86
45813;BME280;31519;45.408;10.962;2023-12-20T01:56:17;100700.00;;;6.15;78.24
45813;BME280;31519;45.408;10.962;2023-12-20T01:58:47;100697.91;;;6.12;78.64
45813;BME280;31519;45.408;10.962;2023-12-20T02:01:16;100691.25;;;6.30;77.89
45813;BME280;31519;45.408;10.962;2023-12-20T02:03:45;100685.72;;;6.16;78.46
45813;BME280;31519;45.408;10.962;2023-12-20T02:06:14;100679.16;;;6.09;78.21
45813;BME280;31519;45.408;10.962;2023-12-20T02:08:43;100673.59;;;6.05;78.16
45813;BME280;31519;45.408;10.962;2023-12-20T02:11:11;100675.09;;;6.37;77.43
45813;BME280;31519;45.408;10.962;2023-12-20T02:13:40;100675.09;;;6.32;76.70
45813;BME280;31519;45.408;10.962;2023-12-20T02:16:09;100672.72;;;6.35;76.20
45813;BME280;31519;45.408;10.962;2023-12-20T02:18:38;100674.59;;;6.19;77.06
45813;BME280;31519;45.408;10.962;2023-12-20T02:21:07;100677.75;;;6.32;76.35
45813;BME280;31519;45.408;10.962;2023-12-20T02:23:36;100668.28;;;6.15;76.86
45813;BME280;31519;45.408;10.962;2023-12-20T02:26:04;100667.47;;;6.20;76.37
45813;BME280;31519;45.408;10.962;2023-12-20T02:28:34;100659.31;;;6.01;76.53
45813;BME280;31519;45.408;10.962;2023-12-20T02:31:03;100660.41;;;6.00;76.24
45813;BME280;31519;45.408;10.962;2023-12-20T02:33:32;100653.00;;;6.02;76.26
45813;BME280;31519;45.408;10.962;2023-12-20T02:36:00;100655.88;;;6.06;76.18
45813;BME280;31519;45.408;10.962;2023-12-20T02:38:28;100653.50;;;6.09;76.35
45813;BME280;31519;45.408;10.962;2023-12-20T02:40:56;100653.72;;;6.23;76.12
45813;BME280;31519;45.408;10.962;2023-12-20T02:43:25;100646.84;;;6.22;75.87
45813;BME280;31519;45.408;10.962;2023-12-20T02:45:53;100638.69;;;6.08;76.22
45813;BME280;31519;45.408;10.962;2023-12-20T02:48:22;100633.44;;;5.83;77.10
45813;BME280;31519;45.408;10.962;2023-12-20T02:50:50;100632.91;;;5.96;76.83
45813;BME280;31519;45.408;10.962;2023-12-20T02:53:19;100636.34;;;5.97;76.16
45813;BME280;31519;45.408;10.962;2023-12-20T02:55:48;100633.66;;;6.07;76.13
45813;BME280;31519;45.408;10.962;2023-12-20T02:58:16;100627.34;;;6.03;76.73
45813;BME280;31519;45.408;10.962;2023-12-20T03:00:45;100624.13;;;6.11;76.90
45813;BME280;31519;45.408;10.962;2023-12-20T03:03:14;100622.31;;;6.01;77.49
45813;BME280;31519;45.408;10.962;2023-12-20T03:05:42;100619.19;;;5.89;77.07
45813;BME280;31519;45.408;10.962;2023-12-20T03:08:11;100618.13;;;6.00;77.38
45813;BME280;31519;45.408;10.962;2023-12-20T03:10:40;100616.78;;;5.93;77.48
45813;BME280;31519;45.408;10.962;2023-12-20T03:13:09;100610.69;;;5.97;77.51
45813;BME280;31519;45.408;10.962;2023-12-20T03:15:37;100608.56;;;6.09;77.36
45813;BME280;31519;45.408;10.962;2023-12-20T03:18:06;100600.31;;;6.16;77.51
45813;BME280;31519;45.408;10.962;2023-12-20T03:20:34;100587.66;;;6.08;77.33
45813;BME280;31519;45.408;10.962;2023-12-20T03:23:04;100589.13;;;6.29;76.70
45813;BME280;31519;45.408;10.962;2023-12-20T03:25:32;100582.84;;;6.20;76.60
45813;BME280;31519;45.408;10.962;2023-12-20T03:28:00;100584.97;;;6.18;76.45
45813;BME280;31519;45.408;10.962;2023-12-20T03:30:29;100583.44;;;6.02;77.43
45813;BME280;31519;45.408;10.962;2023-12-20T03:32:57;100568.13;;;6.04;77.00
45813;BME280;31519;45.408;10.962;2023-12-20T03:35:26;100571.78;;;6.13;76.67
45813;BME280;31519;45.408;10.962;2023-12-20T03:37:54;100563.06;;;6.07;77.59
45813;BME280;31519;45.408;10.962;2023-12-20T03:40:22;100561.69;;;6.15;77.84
45813;BME280;31519;45.408;10.962;2023-12-20T03:42:51;100566.81;;;5.96;78.21
45813;BME280;31519;45.408;10.962;2023-12-20T03:45:19;100567.19;;;6.23;77.28
45813;BME280;31519;45.408;10.962;2023-12-20T03:47:48;100576.25;;;6.17;77.19
45813;BME280;31519;45.408;10.962;2023-12-20T03:50:17;100580.19;;;6.20;76.55
45813;BME280;31519;45.408;10.962;2023-12-20T03:52:46;100582.31;;;6.23;76.69
45813;BME280;31519;45.408;10.962;2023-12-20T03:55:15;100583.97;;;6.09;77.01
45813;BME280;31519;45.408;10.962;2023-12-20T03:57:44;100587.81;;;6.32;76.77
45813;BME280;31519;45.408;10.962;2023-12-20T04:00:13;100588.69;;;6.17;77.52
45813;BME280;31519;45.408;10.962;2023-12-20T04:02:42;100581.31;;;6.09;77.71
45813;BME280;31519;45.408;10.962;2023-12-20T04:05:10;100580.81;;;6.02;77.84
45813;BME280;31519;45.408;10.962;2023-12-20T04:07:39;100575.50;;;6.07;77.29
45813;BME280;31519;45.408;10.962;2023-12-20T04:10:08;100571.47;;;6.14;77.28
45813;BME280;31519;45.408;10.962;2023-12-20T04:12:37;100558.84;;;6.01;76.95
45813;BME280;31519;45.408;10.962;2023-12-20T04:15:05;100554.16;;;5.93;77.83
45813;BME280;31519;45.408;10.962;2023-12-20T04:17:38;100547.75;;;6.04;76.85
45813;BME280;31519;45.408;10.962;2023-12-20T04:20:07;100546.56;;;6.26;76.37
45813;BME280;31519;45.408;10.962;2023-12-20T04:22:36;100541.34;;;6.10;76.39
45813;BME280;31519;45.408;10.962;2023-12-20T04:25:04;100537.59;;;6.27;76.00
45813;BME280;31519;45.408;10.962;2023-12-20T04:27:33;100529.03;;;6.40;76.35
45813;BME280;31519;45.408;10.962;2023-12-20T04:30:01;100527.22;;;6.35;76.41
45813;BME280;31519;45.408;10.962;2023-12-20T04:32:31;100527.19;;;6.40;77.25
45813;BME280;31519;45.408;10.962;2023-12-20T04:34:59;100526.56;;;6.53;76.50
45813;BME280;31519;45.408;10.962;2023-12-20T04:37:28;100533.25;;;6.41;77.44
45813;BME280;31519;45.408;10.962;2023-12-20T04:39:57;100522.72;;;6.36;77.16
45813;BME280;31519;45.408;10.962;2023-12-20T04:42:25;100523.84;;;6.63;75.99
45813;BME280;31519;45.408;10.962;2023-12-20T04:44:53;100533.84;;;6.66;75.58
45813;BME280;31519;45.408;10.962;2023-12-20T04:47:22;100543.66;;;6.66;74.00
45813;BME280;31519;45.408;10.962;2023-12-20T04:49:50;100544.38;;;6.38;73.98
45813;BME280;31519;45.408;10.962;2023-12-20T04:52:19;100541.69;;;6.43;74.25
45813;BME280;31519;45.408;10.962;2023-12-20T04:54:47;100532.31;;;6.21;75.16
45813;BME280;31519;45.408;10.962;2023-12-20T04:57:16;100516.94;;;6.23;75.01
45813;BME280;31519;45.408;10.962;2023-12-20T04:59:45;100517.88;;;6.43;75.34
45813;BME280;31519;45.408;10.962;2023-12-20T05:02:13;100507.75;;;6.55;74.68
45813;BME280;31519;45.408;10.962;2023-12-20T05:04:42;100498.72;;;6.22;75.15
45813;BME280;31519;45.408;10.962;2023-12-20T05:07:11;100505.03;;;6.26;75.21
45813;BME280;31519;45.408;10.962;2023-12-20T05:09:39;100496.06;;;6.27;75.16
45813;BME280;31519;45.408;10.962;2023-12-20T05:12:08;100518.00;;;6.28;74.75
45813;BME280;31519;45.408;10.962;2023-12-20T05:14:36;100519.00;;;6.37;75.23
45813;BME280;31519;45.408;10.962;2023-12-20T05:17:05;100522.66;;;6.46;75.01
45813;BME280;31519;45.408;10.962;2023-12-20T05:19:33;100526.84;;;6.47;74.58
45813;BME280;31519;45.408;10.962;2023-12-20T05:22:05;100532.66;;;6.49;74.43
45813;BME280;31519;45.408;10.962;2023-12-20T05:24:33;100535.81;;;6.51;74.79
45813;BME280;31519;45.408;10.962;2023-12-20T05:27:02;100535.47;;;6.62;74.83
45813;BME280;31519;45.408;10.962;2023-12-20T05:29:30;100532.13;;;6.86;73.25
45813;BME280;31519;45.408;10.962;2023-12-20T05:31:59;100518.97;;;7.04;72.25
45813;BME280;31519;45.408;10.962;2023-12-20T05:34:27;100514.06;;;6.88;72.54
45813;BME280;31519;45.408;10.962;2023-12-20T05:36:57;100505.63;;;7.15;71.43
45813;BME280;31519;45.408;10.962;2023-12-20T05:39:26;100516.94;;;6.96;71.35
45813;BME280;31519;45.408;10.962;2023-12-20T05:41:54;100510.16;;;6.85;72.15
45813;BME280;31519;45.408;10.962;2023-12-20T05:44:22;100500.44;;;7.04;71.89
45813;BME280;31519;45.408;10.962;2023-12-20T05:46:51;100505.44;;;7.06;71.74
45813;BME280;31519;45.408;10.962;2023-12-20T05:49:19;100505.00;;;6.99;71.98
45813;BME280;31519;45.408;10.962;2023-12-20T05:51:47;100515.22;;;6.82;72.44
45813;BME280;31519;45.408;10.962;2023-12-20T05:54:16;100510.97;;;6.81;72.49
45813;BME280;31519;45.408;10.962;2023-12-20T05:56:44;100504.09;;;6.80;72.79
45813;BME280;31519;45.408;10.962;2023-12-20T05:59:13;100508.16;;;6.72;73.32
45813;BME280;31519;45.408;10.962;2023-12-20T06:01:42;100496.38;;;6.83;73.56
45813;BME280;31519;45.408;10.962;2023-12-20T06:04:10;100505.13;;;6.84;73.62
45813;BME280;31519;45.408;10.962;2023-12-20T06:06:43;100500.94;;;7.06;72.62
45813;BME280;31519;45.408;10.962;2023-12-20T06:09:12;100502.28;;;7.04;72.15
45813;BME280;31519;45.408;10.962;2023-12-20T06:11:41;100500.75;;;6.98;72.54
45813;BME280;31519;45.408;10.962;2023-12-20T06:14:09;100510.56;;;6.97;72.33
45813;BME280;31519;45.408;10.962;2023-12-20T06:16:37;100505.41;;;6.82;73.42
45813;BME280;31519;45.408;10.962;2023-12-20T06:19:06;100484.47;;;6.86;73.81
45813;BME280;31519;45.408;10.962;2023-12-20T06:21:35;100487.56;;;6.93;73.35
45813;BME280;31519;45.408;10.962;2023-12-20T06:24:03;100486.09;;;6.82;74.13
45813;BME280;31519;45.408;10.962;2023-12-20T06:26:32;100483.63;;;6.90;73.73
45813;BME280;31519;45.408;10.962;2023-12-20T06:29:00;100492.50;;;6.76;74.70
45813;BME280;31519;45.408;10.962;2023-12-20T06:31:29;100488.56;;;6.73;75.31
45813;BME280;31519;45.408;10.962;2023-12-20T06:33:57;100473.50;;;6.68;75.78
45813;BME280;31519;45.408;10.962;2023-12-20T06:36:28;100473.34;;;6.84;76.13
45813;BME280;31519;45.408;10.962;2023-12-20T06:38:56;100482.69;;;6.76;76.37
45813;BME280;31519;45.408;10.962;2023-12-20T06:41:26;100486.94;;;6.77;75.89
45813;BME280;31519;45.408;10.962;2023-12-20T06:43:54;100488.09;;;6.95;75.93
45813;BME280;31519;45.408;10.962;2023-12-20T06:46:23;100484.63;;;6.65;76.47
45813;BME280;31519;45.408;10.962;2023-12-20T06:48:51;100466.81;;;6.76;76.42
45813;BME280;31519;45.408;10.962;2023-12-20T06:51:20;100459.41;;;6.78;76.53
45813;BME280;31519;45.408;10.962;2023-12-20T06:53:48;100467.03;;;6.80;76.23
45813;BME280;31519;45.408;10.962;2023-12-20T06:56:17;100471.03;;;6.77;75.74
45813;BME280;31519;45.408;10.962;2023-12-20T06:58:46;100471.28;;;6.81;76.10
45813;BME280;31519;45.408;10.962;2023-12-20T07:01:15;100468.75;;;6.94;74.49
45813;BME280;31519;45.408;10.962;2023-12-20T07:03:44;100481.25;;;6.89;74.52
45813;BME280;31519;45.408;10.962;2023-12-20T07:06:13;100480.38;;;6.98;74.86
45813;BME280;31519;45.408;10.962;2023-12-20T07:08:44;100480.03;;;7.05;75.34
45813;BME280;31519;45.408;10.962;2023-12-20T07:11:13;100492.28;;;7.01;75.11
45813;BME280;31519;45.408;10.962;2023-12-20T07:13:41;100488.69;;;7.10;74.76
45813;BME280;31519;45.408;10.962;2023-12-20T07:16:09;100487.28;;;7.23;74.03
45813;BME280;31519;45.408;10.962;2023-12-20T07:18:38;100487.81;;;7.20;73.91
45813;BME280;31519;45.408;10.962;2023-12-20T07:21:06;100490.47;;;7.20;74.01
45813;BME280;31519;45.408;10.962;2023-12-20T07:23:35;100490.72;;;7.24;73.28
45813;BME280;31519;45.408;10.962;2023-12-20T07:26:04;100499.94;;;7.26;73.51
45813;BME280;31519;45.408;10.962;2023-12-20T07:28:32;100511.56;;;7.30;71.97
45813;BME280;31519;45.408;10.962;2023-12-20T07:31:01;100517.25;;;7.42;70.95
45813;BME280;31519;45.408;10.962;2023-12-20T07:33:30;100513.88;;;7.61;70.59
45813;BME280;31519;45.408;10.962;2023-12-20T07:36:07;100517.41;;;7.93;69.16
45813;BME280;31519;45.408;10.962;2023-12-20T07:38:35;100505.22;;;7.74;68.55
45813;BME280;31519;45.408;10.962;2023-12-20T07:41:04;100499.78;;;7.84;68.55
45813;BME280;31519;45.408;10.962;2023-12-20T07:43:33;100490.91;;;7.93;67.38
45813;BME280;31519;45.408;10.962;2023-12-20T07:46:08;100491.75;;;7.89;67.64
45813;BME280;31519;45.408;10.962;2023-12-20T07:48:37;100494.72;;;7.87;67.02
45813;BME280;31519;45.408;10.962;2023-12-20T07:51:06;100496.25;;;7.88;67.22
45813;BME280;31519;45.408;10.962;2023-12-20T07:53:35;100490.69;;;7.90;67.61
45813;BME280;31519;45.408;10.962;2023-12-20T07:56:19;100499.84;;;8.16;66.64
45813;BME280;31519;45.408;10.962;2023-12-20T07:58:47;100509.91;;;8.00;66.51
45813;BME280;31519;45.408;10.962;2023-12-20T08:01:22;100522.00;;;8.07;67.30
45813;BME280;31519;45.408;10.962;2023-12-20T08:03:50;100517.94;;;8.14;66.99
45813;BME280;31519;45.408;10.962;2023-12-20T08:06:20;100527.84;;;8.27;67.19
45813;BME280;31519;45.408;10.962;2023-12-20T08:08:49;100520.75;;;8.23;67.38
45813;BME280;31519;45.408;10.962;2023-12-20T08:11:28;100521.63;;;8.37;65.86
45813;BME280;31519;45.408;10.962;2023-12-20T08:13:57;100522.09;;;8.58;65.58
45813;BME280;31519;45.408;10.962;2023-12-20T08:16:26;100520.53;;;8.57;65.85
45813;BME280;31519;45.408;10.962;2023-12-20T08:18:55;100516.72;;;8.63;65.72
45813;BME280;31519;45.408;10.962;2023-12-20T08:21:23;100516.19;;;8.47;67.21
45813;BME280;31519;45.408;10.962;2023-12-20T08:23:51;100523.72;;;8.72;67.86
45813;BME280;31519;45.408;10.962;2023-12-20T08:26:20;100530.47;;;8.83;67.38
45813;BME280;31519;45.408;10.962;2023-12-20T08:28:52;100532.19;;;8.74;67.60
45813;BME280;31519;45.408;10.962;2023-12-20T08:31:20;100529.78;;;8.59;66.86
45813;BME280;31519;45.408;10.962;2023-12-20T08:33:49;100535.66;;;8.75;66.87
45813;BME280;31519;45.408;10.962;2023-12-20T08:36:19;100533.59;;;8.85;65.73
45813;BME280;31519;45.408;10.962;2023-12-20T08:38:49;100533.66;;;9.13;65.66
45813;BME280;31519;45.408;10.962;2023-12-20T08:41:18;100538.19;;;9.12;65.44
45813;BME280;31519;45.408;10.962;2023-12-20T08:43:48;100549.88;;;8.98;66.72
45813;BME280;31519;45.408;10.962;2023-12-20T08:46:16;100546.31;;;8.88;66.12
45813;BME280;31519;45.408;10.962;2023-12-20T08:48:45;100541.44;;;9.09;66.10
45813;BME280;31519;45.408;10.962;2023-12-20T08:51:14;100538.72;;;8.82;65.43
45813;BME280;31519;45.408;10.962;2023-12-20T08:53:43;100536.56;;;8.84;65.61
45813;BME280;31519;45.408;10.962;2023-12-20T08:56:14;100538.13;;;8.85;67.31
45813;BME280;31519;45.408;10.962;2023-12-20T08:58:42;100537.50;;;9.07;67.10
45813;BME280;31519;45.408;10.962;2023-12-20T09:01:10;100537.63;;;8.83;66.00
45813;BME280;31519;45.408;10.962;2023-12-20T09:03:39;100537.94;;;8.95;66.43
45813;BME280;31519;45.408;10.962;2023-12-20T09:06:09;100534.06;;;9.20;65.31
45813;BME280;31519;45.408;10.962;2023-12-20T09:08:37;100533.72;;;8.94;66.91
45813;BME280;31519;45.408;10.962;2023-12-20T09:11:06;100542.09;;;8.69;69.07
45813;BME280;31519;45.408;10.962;2023-12-20T09:13:35;100547.38;;;8.55;71.03
45813;BME280;31519;45.408;10.962;2023-12-20T09:16:04;100550.78;;;8.18;73.03
45813;BME280;31519;45.408;10.962;2023-12-20T09:18:32;100543.53;;;8.05;73.74
45813;BME280;31519;45.408;10.962;2023-12-20T09:21:01;100539.47;;;8.31;72.88
45813;BME280;31519;45.408;10.962;2023-12-20T09:23:30;100538.59;;;8.17;73.34
45813;BME280;31519;45.408;10.962;2023-12-20T09:25:58;100536.03;;;8.31;73.47
45813;BME280;31519;45.408;10.962;2023-12-20T09:28:27;100540.69;;;8.39;73.34
45813;BME280;31519;45.408;10.962;2023-12-20T09:30:55;100545.44;;;8.42;74.08
45813;BME280;31519;45.408;10.962;2023-12-20T09:33:24;100536.59;;;8.65;73.05
45813;BME280;31519;45.408;10.962;2023-12-20T09:35:53;100538.31;;;8.75;72.33
45813;BME280;31519;45.408;10.962;2023-12-20T09:38:21;100533.19;;;8.78;71.47
45813;BME280;31519;45.408;10.962;2023-12-20T09:40:51;100514.88;;;8.77;71.34
45813;BME280;31519;45.408;10.962;2023-12-20T09:43:20;100511.13;;;8.64;71.56
45813;BME280;31519;45.408;10.962;2023-12-20T09:45:53;100508.06;;;8.71;71.37
45813;BME280;31519;45.408;10.962;2023-12-20T09:48:21;100506.53;;;8.70;71.60
45813;BME280;31519;45.408;10.962;2023-12-20T09:50:50;100512.25;;;8.90;70.46
45813;BME280;31519;45.408;10.962;2023-12-20T09:53:21;100504.75;;;9.11;70.12
45813;BME280;31519;45.408;10.962;2023-12-20T09:55:52;100507.75;;;9.05;70.74
45813;BME280;31519;45.408;10.962;2023-12-20T09:58:21;100516.72;;;9.09;69.97
45813;BME280;31519;45.408;10.962;2023-12-20T10:00:50;100511.09;;;8.97;69.53
45813;BME280;31519;45.408;10.962;2023-12-20T10:03:24;100502.53;;;9.00;70.07
45813;BME280;31519;45.408;10.962;2023-12-20T10:05:56;100499.41;;;9.11;69.66
45813;BME280;31519;45.408;10.962;2023-12-20T10:08:26;100492.16;;;8.84;69.39
45813;BME280;31519;45.408;10.962;2023-12-20T10:10:55;100480.50;;;9.13;69.33
45813;BME280;31519;45.408;10.962;2023-12-20T10:13:23;100461.53;;;9.33;68.52
45813;BME280;31519;45.408;10.962;2023-12-20T10:15:52;100462.00;;;9.35;67.38
45813;BME280;31519;45.408;10.962;2023-12-20T10:18:20;100475.09;;;9.18;68.55
45813;BME280;31519;45.408;10.962;2023-12-20T10:20:49;100475.59;;;8.93;68.00
45813;BME280;31519;45.408;10.962;2023-12-20T10:23:18;100473.63;;;9.12;68.28
45813;BME280;31519;45.408;10.962;2023-12-20T10:25:56;100470.75;;;9.08;67.54
45813;BME280;31519;45.408;10.962;2023-12-20T10:28:25;100470.38;;;9.28;66.56
45813;BME280;31519;45.408;10.962;2023-12-20T10:30:57;100462.94;;;8.84;67.13
45813;BME280;31519;45.408;10.962;2023-12-20T10:33:27;100469.66;;;8.82;67.45
45813;BME280;31519;45.408;10.962;2023-12-20T10:35:57;100473.56;;;8.71;67.19
45813;BME280;31519;45.408;10.962;2023-12-20T10:38:25;100474.97;;;8.82;66.90
45813;BME280;31519;45.408;10.962;2023-12-20T10:40:57;100477.84;;;9.13;66.80
45813;BME280;31519;45.408;10.962;2023-12-20T10:43:30;100477.38;;;8.65;68.06
45813;BME280;31519;45.408;10.962;2023-12-20T10:46:03;100468.72;;;8.59;68.55
45813;BME280;31519;45.408;10.962;2023-12-20T10:48:32;100475.22;;;8.67;69.65
45813;BME280;31519;45.408;10.962;2023-12-20T10:51:01;100466.72;;;8.51;69.89
45813;BME280;31519;45.408;10.962;2023-12-20T10:53:30;100461.56;;;8.73;68.31
45813;BME280;31519;45.408;10.962;2023-12-20T10:56:00;100454.84;;;8.62;69.87
45813;BME280;31519;45.408;10.962;2023-12-20T10:58:32;100456.44;;;8.31;69.66
45813;BME280;31519;45.408;10.962;2023-12-20T11:01:02;100462.34;;;8.60;68.96
45813;BME280;31519;45.408;10.962;2023-12-20T11:03:36;100447.09;;;8.66;67.99
45813;BME280;31519;45.408;10.962;2023-12-20T11:14:14;100464.16;;;8.78;68.73
45813;BME280;31519;45.408;10.962;2023-12-20T11:16:44;100461.84;;;8.72;69.16
45813;BME280;31519;45.408;10.962;2023-12-20T11:19:21;100468.66;;;8.78;69.33
45813;BME280;31519;45.408;10.962;2023-12-20T11:21:50;100456.53;;;8.72;70.12
45813;BME280;31519;45.408;10.962;2023-12-20T11:24:21;100456.28;;;8.87;69.39
45813;BME280;31519;45.408;10.962;2023-12-20T11:26:56;100455.22;;;9.02;69.84
45813;BME280;31519;45.408;10.962;2023-12-20T11:29:36;100461.50;;;8.92;70.10
45813;BME280;31519;45.408;10.962;2023-12-20T11:34:59;100458.69;;;9.16;70.63
45813;BME280;31519;45.408;10.962;2023-12-20T11:37:29;100462.13;;;9.44;70.63
45813;BME280;31519;45.408;10.962;2023-12-20T11:40:06;100459.94;;;9.32;71.49
45813;BME280;31519;45.408;10.962;2023-12-20T11:42:39;100457.09;;;9.42;71.47
45813;BME280;31519;45.408;10.962;2023-12-20T11:45:16;100441.16;;;9.42;71.31
45813;BME280;31519;45.408;10.962;2023-12-20T11:47:46;100439.84;;;9.67;70.42
45813;BME280;31519;45.408;10.962;2023-12-20T11:50:16;100426.75;;;9.93;69.25
45813;BME280;31519;45.408;10.962;2023-12-20T11:52:46;100426.94;;;9.96;68.56
45813;BME280;31519;45.408;10.962;2023-12-20T11:55:14;100428.22;;;9.99;68.32
45813;BME280;31519;45.408;10.962;2023-12-20T11:57:43;100425.09;;;10.19;68.11
45813;BME280;31519;45.408;10.962;2023-12-20T12:00:14;100430.38;;;9.97;67.69
45813;BME280;31519;45.408;10.962;2023-12-20T12:02:43;100426.75;;;10.15;67.83
45813;BME280;31519;45.408;10.962;2023-12-20T12:05:14;100420.47;;;10.11;67.26
45813;BME280;31519;45.408;10.962;2023-12-20T12:07:43;100403.50;;;10.20;67.10
45813;BME280;31519;45.408;10.962;2023-12-20T12:10:11;100412.19;;;10.12;67.00
45813;BME280;31519;45.408;10.962;2023-12-20T12:12:40;100409.34;;;10.31;66.58
45813;BME280;31519;45.408;10.962;2023-12-20T12:15:09;100405.53;;;10.01;68.21
45813;BME280;31519;45.408;10.962;2023-12-20T12:17:38;100403.19;;;10.44;67.24
45813;BME280;31519;45.408;10.962;2023-12-20T12:20:07;100398.59;;;10.36;66.79
45813;BME280;31519;45.408;10.962;2023-12-20T12:22:38;100402.16;;;10.32;66.60
45813;BME280;31519;45.408;10.962;2023-12-20T12:25:10;100401.03;;;10.24;66.45
45813;BME280;31519;45.408;10.962;2023-12-20T12:27:41;100383.44;;;10.45;65.77
45813;BME280;31519;45.408;10.962;2023-12-20T12:30:10;100373.63;;;10.54;66.15
45813;BME280;31519;45.408;10.962;2023-12-20T12:32:41;100368.81;;;10.34;66.97
45813;BME280;31519;45.408;10.962;2023-12-20T12:35:09;100357.13;;;10.44;66.89
45813;BME280;31519;45.408;10.962;2023-12-20T12:37:39;100371.63;;;10.29;67.67
45813;BME280;31519;45.408;10.962;2023-12-20T12:40:12;100366.69;;;10.00;69.09
45813;BME280;31519;45.408;10.962;2023-12-20T12:42:43;100373.94;;;10.53;67.49
45813;BME280;31519;45.408;10.962;2023-12-20T12:45:12;100375.44;;;10.68;66.44
45813;BME280;31519;45.408;10.962;2023-12-20T12:47:41;100381.72;;;10.72;66.20
45813;BME280;31519;45.408;10.962;2023-12-20T12:50:09;100378.75;;;11.38;63.85
45813;BME280;31519;45.408;10.962;2023-12-20T12:52:38;100368.25;;;11.42;63.00
45813;BME280;31519;45.408;10.962;2023-12-20T12:55:08;100364.34;;;11.65;63.31
45813;BME280;31519;45.408;10.962;2023-12-20T12:57:36;100357.75;;;11.54;63.18
45813;BME280;31519;45.408;10.962;2023-12-20T13:00:05;100353.06;;;11.77;62.63
45813;BME280;31519;45.408;10.962;2023-12-20T13:02:36;100358.09;;;11.95;61.41
45813;BME280;31519;45.408;10.962;2023-12-20T13:05:06;100361.28;;;12.44;59.45
45813;BME280;31519;45.408;10.962;2023-12-20T13:07:34;100346.47;;;12.55;57.25
45813;BME280;31519;45.408;10.962;2023-12-20T13:10:03;100343.25;;;13.29;55.54
45813;BME280;31519;45.408;10.962;2023-12-20T13:12:32;100339.63;;;13.04;55.20